La Coruña, Spain

2:18 PM CEST en Junio 28, 2017 (GMT +0200)
Rúa Comandante Fontanes | | Change Station

Alt 22 ft 43.37 °N, 8.41 °W | Updated 3 minutes ago

Muy nublado
Muy nublado
60.8 ° F
Sensación térmica 60.8 ° F
N
4.3
Viento Variable Viento desde NE
Gusts 16.2 mph

Hoy
Alta -- | Baja -- ° F
--% Posibilidad de precipitaciones
Ayer
Alta -- | Baja -- ° F
Precip. -- pul
Presión 29.92 pul
Visibilidad 5.0 Millas
Nubes Nubes dispersas 1200 ft
Muy nublado 1900 ft
Punto de rocío 61 ° F
Humedad 100%
Precipitaciones No disponible.
Espesor de la nieve No disponible.
6:55 AM 10:18 PM
Creciente, 25% visible
SPECI LEST 281216Z 31013G26KT 280V350 8000 SCT012 BKN019 15/14 Q1013 RERA TEMPO 3000 RA
Presión 29.92 pul
Visibilidad 5.0 Millas
Nubes Nubes dispersas 1200 ft
Muy nublado 1900 ft
Punto de rocío 61 ° F
Humedad 100%
Precipitaciones No disponible.
Espesor de la nieve No disponible.
6:55 AM 10:18 PM
Creciente, 25% visible
SPECI LEST 281216Z 31013G26KT 280V350 8000 SCT012 BKN019 15/14 Q1013 RERA TEMPO 3000 RA

Get Severe Weather Alerts

Thanks for signing up!

Be on the lookout for a verification email in your inbox.

You'll start receiving the daily forecast at 6 AM.

×

10-Day Weather Forecast

×

Almanac

Astronomía

Jun. 28, 2017 Salida Puesta
Hora real
Crepúsculo civil
Crepúsculo náutico
Crepúsculo astronómico
Luna
Horas de luz
Horas de luz
Tomorrow will be .
, % of the Moon is Illuminated

Extremos de hoy

Máximos del país Bajas del país

Community

WunderPhotos

Category 6

Welcome to Category 6. This is the collective home for Weather Underground's featured writeups by Dr. Jeff Masters (right), Bob Henson (left), Chris Burt, and other regular contributors.

Nearby

Calidad del aire

  Calidad del aire Índice AQ Contaminante
Not available.

Grosos de nieve

Estación Profundido Altura

Actividad de terremotos

Ciudad Distance Mag. Tiempo y dato
Magnitud mínima muestra es 2,5.

Temperaturas de aguas costeras

Lugar Temperatura

Stations

Estaciones meteorológicas cercanas

Ubicación de la estación Temp. Vientos helados Punto de rocío Humedad Viento Precip. Alt Actualizado Tipo